createdAt,value
2018-02-22T00:02:16.049Z,68.58
2018-02-22T00:04:43.498Z,68.47
2018-02-22T00:07:10.957Z,68.09
2018-02-22T00:09:38.428Z,67.87
2018-02-22T00:12:05.878Z,68.32
2018-02-22T00:14:33.484Z,68.64
2018-02-22T00:17:00.947Z,68.74
2018-02-22T00:19:28.433Z,69.48
2018-02-22T00:21:55.916Z,69.41
2018-02-22T00:24:23.376Z,69.16
2018-02-22T00:26:51.910Z,69.24
2018-02-22T00:29:19.445Z,69.48
2018-02-22T00:31:46.913Z,69.11
2018-02-22T00:34:14.381Z,69.28
2018-02-22T00:36:41.912Z,68.51
2018-02-22T00:39:10.058Z,68.79
2018-02-22T00:41:37.513Z,69.29
2018-02-22T00:44:04.963Z,68.76
2018-02-22T00:46:32.433Z,69.26
2018-02-22T00:48:59.880Z,68.98
2018-02-22T00:51:27.600Z,69.78
2018-02-22T00:53:55.053Z,69.83
2018-02-22T00:56:22.502Z,70.36
2018-02-22T00:58:49.989Z,70.28
2018-02-22T01:01:17.437Z,70.12
2018-02-22T01:03:44.924Z,69.98
2018-02-22T01:06:12.388Z,69.08
2018-02-22T01:08:39.838Z,69.21
2018-02-22T01:11:07.309Z,68.94
2018-02-22T01:13:34.797Z,69.26
2018-02-22T01:16:02.506Z,69.15
2018-02-22T01:18:29.956Z,68.92
2018-02-22T01:20:57.410Z,69.17
2018-02-22T01:23:24.897Z,69.56
2018-02-22T01:25:52.382Z,69.18
2018-02-22T01:28:20.060Z,69.47
2018-02-22T01:30:47.536Z,68.79
2018-02-22T01:33:14.985Z,68.96
2018-02-22T01:35:42.456Z,69.54
2018-02-22T01:38:10.420Z,68.99
2018-02-22T01:40:38.013Z,68.94
2018-02-22T01:43:05.469Z,68.71
2018-02-22T01:45:32.935Z,69.06
2018-02-22T01:48:00.438Z,69.07
2018-02-22T01:50:27.888Z,68.68
2018-02-22T01:52:55.785Z,68.50
2018-02-22T01:55:23.236Z,68.48
2018-02-22T01:57:50.685Z,68.53
2018-02-22T02:00:18.177Z,68.75
2018-02-22T02:02:45.689Z,68.87
2018-02-22T02:05:13.453Z,68.53
2018-02-22T02:07:40.909Z,68.50
2018-02-22T02:10:08.376Z,68.69
2018-02-22T02:12:35.865Z,68.14
2018-02-22T02:15:03.330Z,68.32
2018-02-22T02:17:31.005Z,67.56
2018-02-22T02:19:58.473Z,67.82
2018-02-22T02:22:25.957Z,68.08
2018-02-22T02:24:53.793Z,67.99
2018-02-22T02:27:21.242Z,67.81
2018-02-22T02:29:49.045Z,67.83
2018-02-22T02:32:16.500Z,67.49
2018-02-22T02:34:43.953Z,67.70
2018-02-22T02:37:11.465Z,67.14
2018-02-22T02:39:38.915Z,67.87
2018-02-22T02:42:06.385Z,67.72
2018-02-22T02:44:33.841Z,67.56
2018-02-22T02:47:01.289Z,67.52
2018-02-22T02:49:28.772Z,68.22
2018-02-22T02:51:56.218Z,68.01
2018-02-22T02:54:23.842Z,67.02
2018-02-22T02:56:53.782Z,68.60
2018-02-22T02:59:21.237Z,68.25
2018-02-22T03:01:48.713Z,68.29
2018-02-22T03:04:16.161Z,68.20
2018-02-22T03:06:43.666Z,68.27
2018-02-22T03:09:11.118Z,68.42
2018-02-22T03:11:38.854Z,68.72
2018-02-22T03:14:06.321Z,69.36
2018-02-22T03:16:33.776Z,69.02
2018-02-22T03:19:01.929Z,69.01
2018-02-22T03:21:29.382Z,68.34
2018-02-22T03:23:56.829Z,68.96
2018-02-22T03:26:24.301Z,68.97
2018-02-22T03:28:51.753Z,69.44
2018-02-22T03:31:19.386Z,69.51
2018-02-22T03:33:46.837Z,69.85
2018-02-22T03:36:14.315Z,70.08
2018-02-22T03:38:41.784Z,70.09
2018-02-22T03:41:09.233Z,70.08
2018-02-22T03:43:36.830Z,70.12
2018-02-22T03:46:04.303Z,70.15
2018-02-22T03:48:31.783Z,70.13
2018-02-22T03:50:59.250Z,69.97
2018-02-22T03:53:26.709Z,70.59
2018-02-22T03:55:54.205Z,70.43
2018-02-22T03:58:21.661Z,70.82
2018-02-22T04:00:49.105Z,70.61
2018-02-22T04:03:16.568Z,70.84
2018-02-22T04:05:44.022Z,70.40
2018-02-22T04:08:11.731Z,70.97
2018-02-22T04:10:39.536Z,70.47
2018-02-22T04:13:07.053Z,70.49
2018-02-22T04:15:34.529Z,69.86
2018-02-22T04:18:01.977Z,70.49
2018-02-22T04:20:29.812Z,70.97
2018-02-22T04:22:57.318Z,70.66
2018-02-22T04:25:24.781Z,71.02
2018-02-22T04:27:52.248Z,70.79
2018-02-22T04:30:19.705Z,70.56
2018-02-22T04:32:47.174Z,70.64
2018-02-22T04:35:14.627Z,70.20
2018-02-22T04:37:42.084Z,70.21
2018-02-22T04:40:09.553Z,69.91
2018-02-22T04:42:37.000Z,70.29
2018-02-22T04:45:04.486Z,70.52
2018-02-22T04:47:31.949Z,70.23
2018-02-22T04:49:59.403Z,70.94
2018-02-22T04:52:26.872Z,70.25
2018-02-22T04:54:54.333Z,70.38
2018-02-22T04:57:22.449Z,70.09
2018-02-22T04:59:50.936Z,70.73
2018-02-22T05:02:18.401Z,71.16
2018-02-22T05:04:45.878Z,70.81
2018-02-22T05:07:13.318Z,71.73
2018-02-22T05:09:40.811Z,71.57
2018-02-22T05:12:08.261Z,71.92
2018-02-22T05:14:35.709Z,71.92
2018-02-22T05:17:03.388Z,71.81
2018-02-22T05:19:30.893Z,71.70
2018-02-22T05:21:58.495Z,72.27
2018-02-22T05:24:25.952Z,71.90
2018-02-22T05:26:53.406Z,71.46
2018-02-22T05:29:21.250Z,71.04
2018-02-22T05:31:48.885Z,71.35
2018-02-22T05:34:16.503Z,70.89
2018-02-22T05:36:43.943Z,70.91
2018-02-22T05:39:11.409Z,70.31
2018-02-22T05:41:38.892Z,70.24
2018-02-22T05:44:06.541Z,69.73
2018-02-22T05:46:34.209Z,69.84
2018-02-22T05:49:01.673Z,69.63
2018-02-22T05:51:29.137Z,69.89
2018-02-22T05:53:56.610Z,69.65
2018-02-22T05:56:24.068Z,69.91
2018-02-22T05:58:51.562Z,69.86
2018-02-22T06:01:19.019Z,69.48
2018-02-22T06:03:46.485Z,69.54
2018-02-22T06:06:13.953Z,69.80
2018-02-22T06:08:41.410Z,69.27
2018-02-22T06:11:08.892Z,69.24
2018-02-22T06:13:36.394Z,68.73
2018-02-22T06:16:03.846Z,68.65
2018-02-22T06:18:31.317Z,68.75
2018-02-22T06:20:58.838Z,68.27
2018-02-22T06:23:26.558Z,67.79
2018-02-22T06:25:54.036Z,68.36
2018-02-22T06:28:21.493Z,68.08
2018-02-22T06:30:49.406Z,68.29
2018-02-22T06:33:16.857Z,68.04
2018-02-22T06:35:44.501Z,67.84
2018-02-22T06:38:11.949Z,67.87
2018-02-22T06:40:39.401Z,68.30
2018-02-22T06:43:06.940Z,68.65
2018-02-22T06:45:34.401Z,68.57
2018-02-22T06:48:01.890Z,68.34
2018-02-22T06:50:29.345Z,68.17
2018-02-22T06:52:56.797Z,68.02
2018-02-22T06:55:24.258Z,67.65
2018-02-22T06:57:51.697Z,67.11
2018-02-22T07:00:19.166Z,66.71
2018-02-22T07:02:46.616Z,66.31
2018-02-22T07:05:14.062Z,66.53
2018-02-22T07:07:41.543Z,66.15
2018-02-22T07:10:08.988Z,65.69
2018-02-22T07:12:36.477Z,65.62
2018-02-22T07:15:03.929Z,65.65
2018-02-22T07:17:31.402Z,65.35
2018-02-22T07:19:58.887Z,65.66
2018-02-22T07:22:26.333Z,65.16
2018-02-22T07:24:53.822Z,65.32
2018-02-22T07:27:21.270Z,65.40
2018-02-22T07:29:49.243Z,64.47
2018-02-22T07:32:16.793Z,64.46
2018-02-22T07:34:44.263Z,63.87
2018-02-22T07:37:11.896Z,64.14
2018-02-22T07:39:39.333Z,64.20
2018-02-22T07:42:06.773Z,64.19
2018-02-22T07:44:34.265Z,63.87
2018-02-22T07:47:01.722Z,63.56
2018-02-22T07:49:29.421Z,63.82
2018-02-22T07:51:56.886Z,62.91
2018-02-22T07:54:24.362Z,62.71
2018-02-22T07:56:51.850Z,61.54
2018-02-22T07:59:19.305Z,62.19
2018-02-22T08:01:46.810Z,62.06
2018-02-22T08:04:14.300Z,61.82
2018-02-22T08:06:41.761Z,61.41
2018-02-22T08:09:09.217Z,60.83
2018-02-22T08:11:36.669Z,60.63
2018-02-22T08:14:05.026Z,60.71
2018-02-22T08:16:33.465Z,59.88
2018-02-22T08:19:00.911Z,59.09
2018-02-22T08:21:28.382Z,59.25
2018-02-22T08:23:55.825Z,59.10
2018-02-22T08:26:23.625Z,59.70
2018-02-22T08:28:51.078Z,59.09
2018-02-22T08:31:18.521Z,59.52
2018-02-22T08:33:45.992Z,58.20
2018-02-22T08:36:13.441Z,58.93
2018-02-22T08:38:40.910Z,58.64
2018-02-22T08:41:08.352Z,58.25
2018-02-22T08:43:35.794Z,57.89
2018-02-22T08:46:03.268Z,56.72
2018-02-22T08:48:30.710Z,58.34
2018-02-22T08:50:58.169Z,57.03
2018-02-22T08:53:25.631Z,57.11
2018-02-22T08:55:53.122Z,56.31
2018-02-22T08:58:20.615Z,57.24
2018-02-22T09:00:48.053Z,57.35
2018-02-22T09:03:16.951Z,54.61
2018-02-22T09:05:44.414Z,55.85
2018-02-22T09:08:11.848Z,56.03
2018-02-22T09:10:39.305Z,54.54
2018-02-22T09:13:06.749Z,55.82
2018-02-22T09:15:34.237Z,55.28
2018-02-22T09:18:01.673Z,54.38
2018-02-22T09:20:29.113Z,54.11
2018-02-22T09:22:56.572Z,54.61
2018-02-22T09:25:24.012Z,55.11
2018-02-22T09:27:51.504Z,53.53
2018-02-22T09:30:18.940Z,54.84
2018-02-22T09:32:46.406Z,54.28
2018-02-22T09:35:13.893Z,53.82
2018-02-22T09:37:41.333Z,54.46
2018-02-22T09:40:08.830Z,53.34
2018-02-22T09:42:36.289Z,53.84
2018-02-22T09:45:03.745Z,55.00
2018-02-22T09:47:31.202Z,55.67
2018-02-22T09:49:58.657Z,53.16
2018-02-22T09:52:26.290Z,53.83
2018-02-22T09:54:53.733Z,54.76
2018-02-22T09:57:21.181Z,53.55
2018-02-22T09:59:48.648Z,53.83
2018-02-22T10:02:16.552Z,54.13
2018-02-22T10:04:44.089Z,54.25
2018-02-22T10:07:11.529Z,54.44
2018-02-22T10:09:38.974Z,53.63
2018-02-22T10:12:06.445Z,54.39
2018-02-22T10:14:33.889Z,53.96
2018-02-22T10:17:01.598Z,53.80
2018-02-22T10:19:29.045Z,54.55
2018-02-22T10:21:56.510Z,54.53
2018-02-22T10:24:23.977Z,55.24
2018-02-22T10:26:51.422Z,53.76
2018-02-22T10:29:18.897Z,54.19
2018-02-22T10:31:46.350Z,53.71
2018-02-22T10:34:13.786Z,52.78
2018-02-22T10:36:41.245Z,53.34
2018-02-22T10:39:08.704Z,51.66
2018-02-22T10:41:36.217Z,52.06
2018-02-22T10:44:03.650Z,52.42
2018-02-22T10:46:31.090Z,52.63
2018-02-22T10:48:59.156Z,51.67
2018-02-22T10:51:26.597Z,52.04
2018-02-22T10:53:54.490Z,52.30
2018-02-22T10:56:21.935Z,50.42
2018-02-22T10:58:49.448Z,51.47
2018-02-22T11:01:22.505Z,51.09
2018-02-22T11:03:49.941Z,50.67
2018-02-22T11:06:17.693Z,52.44
2018-02-22T11:08:45.148Z,52.24
2018-02-22T11:11:12.609Z,51.82
2018-02-22T11:13:40.070Z,52.19
2018-02-22T11:16:07.506Z,52.04
2018-02-22T11:18:35.007Z,53.03
2018-02-22T11:21:02.465Z,51.29
2018-02-22T11:23:30.035Z,51.62
2018-02-22T11:25:57.489Z,52.28
2018-02-22T11:28:24.940Z,52.21
2018-02-22T11:30:52.485Z,52.07
2018-02-22T11:33:19.984Z,52.97
2018-02-22T11:35:47.422Z,52.68
2018-02-22T11:38:14.882Z,52.34
2018-02-22T11:40:42.325Z,52.38
2018-02-22T11:43:10.005Z,53.47
2018-02-22T11:45:37.452Z,52.93
2018-02-22T11:48:04.889Z,52.10
2018-02-22T11:50:32.350Z,52.18
2018-02-22T11:52:59.803Z,51.73
2018-02-22T11:55:27.277Z,52.54
2018-02-22T11:57:54.729Z,52.80
2018-02-22T12:00:22.176Z,52.29
2018-02-22T12:02:49.651Z,52.20
2018-02-22T12:05:17.085Z,51.97
2018-02-22T12:07:44.689Z,51.08
2018-02-22T12:10:12.221Z,51.56
2018-02-22T12:12:39.680Z,50.93
2018-02-22T12:15:07.142Z,51.62
2018-02-22T12:17:34.599Z,51.63
2018-02-22T12:20:02.091Z,51.59
2018-02-22T12:22:29.557Z,52.05
2018-02-22T12:24:56.993Z,51.53
2018-02-22T12:27:24.457Z,51.87
2018-02-22T12:29:51.897Z,50.86
2018-02-22T12:32:19.373Z,51.83
2018-02-22T12:34:46.829Z,52.24
2018-02-22T12:37:14.275Z,51.17
2018-02-22T12:39:41.738Z,50.87
2018-02-22T12:42:09.177Z,49.35
2018-02-22T12:44:36.925Z,50.62
2018-02-22T12:47:04.366Z,49.48
2018-02-22T12:49:31.815Z,50.88
2018-02-22T12:51:59.297Z,51.00
2018-02-22T12:54:26.737Z,51.58
2018-02-22T12:56:54.466Z,51.66
2018-02-22T12:59:21.921Z,49.73
2018-02-22T13:01:49.372Z,50.21
2018-02-22T13:04:16.839Z,49.54
2018-02-22T13:06:44.285Z,50.17
2018-02-22T13:09:12.122Z,50.42
2018-02-22T13:11:39.565Z,49.49
2018-02-22T13:14:07.006Z,48.70
2018-02-22T13:16:34.465Z,48.73
2018-02-22T13:19:01.910Z,49.01
2018-02-22T13:21:29.377Z,49.51
2018-02-22T13:23:56.833Z,49.21
2018-02-22T13:26:24.284Z,48.95
2018-02-22T13:28:51.750Z,48.59
2018-02-22T13:31:19.204Z,48.66
2018-02-22T13:33:58.501Z,49.63
2018-02-22T13:36:25.941Z,49.19
2018-02-22T13:39:05.186Z,48.81
2018-02-22T13:41:32.980Z,48.76
2018-02-22T13:44:12.725Z,49.29
2018-02-22T13:46:40.163Z,49.16
2018-02-22T13:49:19.781Z,48.69
2018-02-22T13:51:47.870Z,48.71
2018-02-22T13:54:15.448Z,48.69
2018-02-22T13:56:54.901Z,47.96
2018-02-22T13:59:22.358Z,47.68
2018-02-22T14:02:01.917Z,48.46
2018-02-22T14:04:29.361Z,48.41
2018-02-22T14:06:56.821Z,48.62
2018-02-22T14:09:24.286Z,47.99
2018-02-22T14:11:51.738Z,49.01
2018-02-22T14:14:19.204Z,49.05
2018-02-22T14:16:46.650Z,48.76
2018-02-22T14:19:14.128Z,48.31
2018-02-22T14:21:41.570Z,47.72
2018-02-22T14:24:09.026Z,47.94
2018-02-22T14:26:36.486Z,48.45
2018-02-22T14:29:03.924Z,48.60
2018-02-22T14:31:31.429Z,48.48
2018-02-22T14:33:58.896Z,49.89
2018-02-22T14:36:26.411Z,49.37
2018-02-22T14:38:54.038Z,48.20
2018-02-22T14:41:21.449Z,48.29
2018-02-22T14:43:48.981Z,49.09
2018-02-22T14:46:16.437Z,47.75
2018-02-22T14:48:43.921Z,48.01
2018-02-22T14:51:11.391Z,48.23
2018-02-22T14:53:38.833Z,49.25
2018-02-22T14:56:06.310Z,48.84
2018-02-22T14:58:33.750Z,49.51
2018-02-22T15:01:09.767Z,48.22
2018-02-22T15:03:37.201Z,48.60
2018-02-22T15:06:04.641Z,49.15
2018-02-22T15:08:32.120Z,49.44
2018-02-22T15:11:00.186Z,49.27
2018-02-22T15:13:27.845Z,48.88
2018-02-22T15:15:55.285Z,49.74
2018-02-22T15:18:22.741Z,49.22
2018-02-22T15:20:50.249Z,49.26
2018-02-22T15:23:17.713Z,48.53
2018-02-22T15:25:45.402Z,48.50
2018-02-22T15:28:12.841Z,49.31
2018-02-22T15:30:40.276Z,48.88
2018-02-22T15:33:07.741Z,48.97
2018-02-22T15:35:35.186Z,48.26
2018-02-22T15:38:03.067Z,49.84
2018-02-22T15:40:30.509Z,49.53
2018-02-22T15:42:57.948Z,49.94
2018-02-22T15:45:25.463Z,49.80
2018-02-22T15:47:52.900Z,48.98
2018-02-22T15:50:20.616Z,50.37
2018-02-22T15:52:48.054Z,50.32
2018-02-22T15:55:15.502Z,49.28
2018-02-22T15:57:42.965Z,49.71
2018-02-22T16:00:10.442Z,50.00
2018-02-22T16:02:38.066Z,50.00
2018-02-22T16:05:05.549Z,50.45
2018-02-22T16:07:33.001Z,49.45
2018-02-22T16:10:01.070Z,49.70
2018-02-22T16:12:28.518Z,50.42
2018-02-22T16:14:56.013Z,51.29
2018-02-22T16:17:23.466Z,50.68
2018-02-22T16:19:50.928Z,50.44
2018-02-22T16:22:18.432Z,50.18
2018-02-22T16:24:45.893Z,49.40
2018-02-22T16:27:13.694Z,50.39
2018-02-22T16:29:41.157Z,51.44
2018-02-22T16:32:08.598Z,50.67
2018-02-22T16:34:36.065Z,51.74
2018-02-22T16:37:03.511Z,50.91
2018-02-22T16:39:31.123Z,51.16
2018-02-22T16:41:58.589Z,51.61
2018-02-22T16:44:26.077Z,51.46
2018-02-22T16:46:53.587Z,51.75
2018-02-22T16:49:21.029Z,52.27
2018-02-22T16:51:48.514Z,52.27
2018-02-22T16:54:15.988Z,53.19
2018-02-22T16:56:43.621Z,53.24
2018-02-22T16:59:11.074Z,53.32
2018-02-22T17:01:38.533Z,53.49
2018-02-22T17:04:05.993Z,53.47
2018-02-22T17:06:33.470Z,53.71
2018-02-22T17:09:02.049Z,52.90
2018-02-22T17:11:29.489Z,53.75
2018-02-22T17:13:56.998Z,53.90
2018-02-22T17:16:24.462Z,54.00
2018-02-22T17:18:51.912Z,53.90
2018-02-22T17:21:19.556Z,53.42
2018-02-22T17:23:47.002Z,54.34
2018-02-22T17:26:20.327Z,54.36
2018-02-22T17:28:53.389Z,54.00
2018-02-22T17:31:26.794Z,53.78
2018-02-22T17:33:54.237Z,54.20
2018-02-22T17:39:38.732Z,54.24
2018-02-22T17:42:06.529Z,54.63
2018-02-22T17:44:34.018Z,54.19
2018-02-22T17:47:01.993Z,54.62
2018-02-22T17:49:29.464Z,54.88
2018-02-22T17:51:56.948Z,55.00
2018-02-22T17:54:24.465Z,54.80
2018-02-22T17:56:51.938Z,55.05
2018-02-22T17:59:19.386Z,55.20
2018-02-22T18:01:46.845Z,55.59
2018-02-22T18:04:14.302Z,55.17
2018-02-22T18:06:41.867Z,55.02
2018-02-22T18:09:09.308Z,55.60
2018-02-22T18:11:36.750Z,55.52
2018-02-22T18:14:07.391Z,55.70
2018-02-22T18:16:34.849Z,55.36
2018-02-22T18:19:02.717Z,55.86
2018-02-22T18:21:30.176Z,55.60
2018-02-22T18:23:57.620Z,55.35
2018-02-22T18:26:25.086Z,55.92
2018-02-22T18:28:52.536Z,56.03
2018-02-22T18:31:20.018Z,56.18
2018-02-22T18:33:47.453Z,56.26
2018-02-22T18:36:14.966Z,56.07
2018-02-22T18:38:47.989Z,56.36
2018-02-22T18:41:16.254Z,55.81
2018-02-22T18:43:43.725Z,56.12
2018-02-22T18:46:11.235Z,56.08
2018-02-22T18:48:38.815Z,56.93
2018-02-22T18:51:06.265Z,55.60
2018-02-22T18:53:33.735Z,55.83
2018-02-22T18:56:01.197Z,56.23
2018-02-22T18:58:28.662Z,55.89
2018-02-22T19:00:56.152Z,55.98
2018-02-22T19:03:23.632Z,56.51
2018-02-22T19:05:51.100Z,56.37
2018-02-22T19:08:18.548Z,56.00
2018-02-22T19:10:45.993Z,55.75
2018-02-22T19:13:13.477Z,55.63
2018-02-22T19:15:40.920Z,55.69
2018-02-22T19:18:08.429Z,55.61
2018-02-22T19:20:35.862Z,56.05
2018-02-22T19:23:03.301Z,56.01
2018-02-22T19:25:30.758Z,55.64
2018-02-22T19:27:58.210Z,55.68
2018-02-22T19:30:26.010Z,55.72
2018-02-22T19:32:53.474Z,55.54
2018-02-22T19:35:20.949Z,55.61
2018-02-22T19:37:48.415Z,55.43
2018-02-22T19:40:15.865Z,55.57
2018-02-22T19:42:43.665Z,55.26
2018-02-22T19:45:11.111Z,55.66
2018-02-22T19:47:38.828Z,55.63
2018-02-22T19:50:06.290Z,55.84
2018-02-22T19:52:34.710Z,56.51
2018-02-22T19:55:02.310Z,56.06
2018-02-22T19:57:29.752Z,55.87
2018-02-22T19:59:57.200Z,55.99
2018-02-22T20:02:24.665Z,56.08
2018-02-22T20:04:52.117Z,56.55
2018-02-22T20:07:19.588Z,56.24
2018-02-22T20:09:47.032Z,56.21
2018-02-22T20:12:14.478Z,56.34
2018-02-22T20:14:41.945Z,56.00
2018-02-22T20:17:09.490Z,56.52
2018-02-22T20:19:37.164Z,56.15
2018-02-22T20:22:04.610Z,56.60
2018-02-22T20:24:32.055Z,56.59
2018-02-22T20:26:59.513Z,56.38
2018-02-22T20:29:26.959Z,55.98
2018-02-22T20:31:54.453Z,56.99
2018-02-22T20:34:21.894Z,57.04
2018-02-22T20:36:49.332Z,56.95
2018-02-22T20:39:16.793Z,57.44
2018-02-22T20:41:44.237Z,57.21
2018-02-22T20:44:11.874Z,57.45
2018-02-22T20:46:39.317Z,57.62
2018-02-22T20:49:06.774Z,57.81
2018-02-22T20:51:37.202Z,57.57
2018-02-22T20:54:05.789Z,57.17
2018-02-22T20:56:33.269Z,56.92
2018-02-22T20:59:00.717Z,56.89
2018-02-22T21:01:28.537Z,57.15
2018-02-22T21:03:55.982Z,57.33
2018-02-22T21:06:23.421Z,57.35
2018-02-22T21:08:50.903Z,57.12
2018-02-22T21:11:18.393Z,57.28
2018-02-22T21:13:46.128Z,57.78
2018-02-22T21:16:13.577Z,57.83
2018-02-22T21:18:41.032Z,57.55
2018-02-22T21:21:08.616Z,58.04
2018-02-22T21:23:36.084Z,57.75
2018-02-22T21:26:03.731Z,58.04
2018-02-22T21:28:31.174Z,57.79
2018-02-22T21:30:58.621Z,58.46
2018-02-22T21:33:26.129Z,57.91
2018-02-22T21:35:53.578Z,58.63
2018-02-22T21:38:21.061Z,58.92
2018-02-22T21:40:48.512Z,58.54
2018-02-22T21:43:15.962Z,58.66
2018-02-22T21:45:43.433Z,59.00
2018-02-22T21:48:10.892Z,59.03
2018-02-22T21:50:38.540Z,59.35
2018-02-22T21:53:06.008Z,59.35
2018-02-22T21:55:33.455Z,59.16
2018-02-22T21:58:00.928Z,59.43
2018-02-22T22:00:28.374Z,59.43
2018-02-22T22:02:56.111Z,59.63
2018-02-22T22:05:23.557Z,59.29
2018-02-22T22:07:51.182Z,59.88
2018-02-22T22:10:18.649Z,59.50
2018-02-22T22:12:46.138Z,59.45
2018-02-22T22:15:13.612Z,59.52
2018-02-22T22:17:41.062Z,59.36
2018-02-22T22:20:08.501Z,59.71
2018-02-22T22:22:35.969Z,59.85
2018-02-22T22:25:03.421Z,59.64
2018-02-22T22:27:30.881Z,59.54
2018-02-22T22:29:58.353Z,59.64
2018-02-22T22:32:25.817Z,59.51
2018-02-22T22:34:53.347Z,60.11
2018-02-22T22:37:20.789Z,60.12
2018-02-22T22:39:48.429Z,59.65
2018-02-22T22:42:15.869Z,59.91
2018-02-22T22:44:43.325Z,59.86
2018-02-22T22:47:10.812Z,59.11
2018-02-22T22:49:38.257Z,59.81
2018-02-22T22:52:05.741Z,59.60
2018-02-22T22:54:33.420Z,59.83
2018-02-22T22:57:00.925Z,59.71
2018-02-22T22:59:28.388Z,60.18
2018-02-22T23:01:55.913Z,60.33
2018-02-22T23:04:23.617Z,60.16
2018-02-22T23:06:51.585Z,59.75
2018-02-22T23:09:19.037Z,59.64
2018-02-22T23:11:46.533Z,59.43
2018-02-22T23:14:13.973Z,59.60
2018-02-22T23:16:41.731Z,60.64
2018-02-22T23:19:09.178Z,60.69
2018-02-22T23:21:36.641Z,60.12
2018-02-22T23:24:04.165Z,60.58
2018-02-22T23:26:31.612Z,60.71
2018-02-22T23:28:59.349Z,60.82
2018-02-22T23:31:26.822Z,60.65
2018-02-22T23:33:54.266Z,60.82
2018-02-22T23:36:21.727Z,60.62
2018-02-22T23:38:51.093Z,60.21
2018-02-22T23:44:21.584Z,60.42
2018-02-22T23:46:49.067Z,60.58
2018-02-22T23:49:16.544Z,59.79
2018-02-22T23:51:44.220Z,60.03
2018-02-22T23:54:11.694Z,60.08
2018-02-22T23:56:39.141Z,59.62
2018-02-22T23:59:06.613Z,59.71
